Time;durP1;ratioP1;P1;durP2;ratioP2;P2;SDS_P1;SDS_P2;PMS_P1;PMS_P2;Temp;Humidity;BMP_temperature;BMP_pressure;BME280_temperature;BME280_humidity;BME280_pressure;Samples;Min_cycle;Max_cycle;Signal;HPM_P1;HPM_P2
2023/09/18 00:01:50;;;;;;;7.40;5.00;;;;;;;;;;5024635;28;20462;-74
2023/09/18 00:04:17;;;;;;;7.53;4.53;;;;;;;;;;5023552;28;21133;-73
2023/09/18 00:06:51;;;;;;;6.97;4.40;;;;;;;;;;5025013;28;20462;-72
2023/09/18 00:09:25;;;;;;;8.17;4.93;;;;;;;;;;5022209;28;20483;-74
2023/09/18 00:11:57;;;;;;;7.53;5.47;;;;;;;;;;5005227;28;20460;-74
2023/09/18 00:14:25;;;;;;;11.67;4.90;;;;;;;;;;5004883;28;20460;-73
2023/09/18 00:16:53;;;;;;;6.50;4.63;;;;;;;;;;5000886;28;20472;-74
2023/09/18 00:19:23;;;;;;;10.20;4.70;;;;;;;;;;5003632;28;20468;-74
2023/09/18 00:21:52;;;;;;;7.40;5.10;;;;;;;;;;5003527;28;20860;-74
2023/09/18 00:24:20;;;;;;;7.30;4.40;;;;;;;;;;5004641;28;20491;-74
2023/09/18 00:26:48;;;;;;;7.83;4.73;;;;;;;;;;5003104;28;20530;-75
2023/09/18 00:29:17;;;;;;;7.90;5.00;;;;;;;;;;5004208;28;20587;-75
2023/09/18 00:31:45;;;;;;;9.50;4.77;;;;;;;;;;5004620;28;20555;-75
2023/09/18 00:34:13;;;;;;;8.47;5.53;;;;;;;;;;5021082;28;20518;-74
2023/09/18 00:36:41;;;;;;;7.23;5.03;;;;;;;;;;5019774;28;20436;-74
2023/09/18 00:39:09;;;;;;;7.20;5.03;;;;;;;;;;5019430;28;20459;-75
2023/09/18 00:41:38;;;;;;;7.17;5.30;;;;;;;;;;5021714;28;20533;-73
2023/09/18 00:44:09;;;;;;;8.53;4.87;;;;;;;;;;5017489;28;20459;-74
2023/09/18 00:46:38;;;;;;;7.30;4.87;;;;;;;;;;5016966;28;20719;-74
2023/09/18 00:49:06;;;;;;;7.33;5.10;;;;;;;;;;5018167;28;20558;-74
2023/09/18 00:51:34;;;;;;;8.20;5.70;;;;;;;;;;5020392;28;20455;-73
2023/09/18 00:54:02;;;;;;;9.60;5.67;;;;;;;;;;5018052;28;20455;-75
2023/09/18 00:56:34;;;;;;;7.00;5.60;;;;;;;;;;5017706;28;20483;-74
2023/09/18 00:59:03;;;;;;;9.70;5.07;;;;;;;;;;5020301;28;20467;-74
2023/09/18 01:01:31;;;;;;;8.17;5.00;;;;;;;;;;5009472;28;20468;-74
2023/09/18 01:04:02;;;;;;;8.50;5.20;;;;;;;;;;5001409;28;20448;-74
2023/09/18 01:06:31;;;;;;;7.37;4.77;;;;;;;;;;5000020;28;20468;-75
2023/09/18 01:09:04;;;;;;;9.13;4.90;;;;;;;;;;5000470;28;20488;-74
2023/09/18 01:11:33;;;;;;;9.50;5.43;;;;;;;;;;5000092;28;20523;-72
2023/09/18 01:14:07;;;;;;;8.07;5.43;;;;;;;;;;5000741;28;20476;-75
2023/09/18 01:16:39;;;;;;;7.57;5.73;;;;;;;;;;4999612;28;20456;-74
2023/09/18 01:19:10;;;;;;;8.60;5.30;;;;;;;;;;5000491;28;20718;-75
2023/09/18 01:21:39;;;;;;;7.30;5.27;;;;;;;;;;5007414;28;20463;-73
2023/09/18 01:24:12;;;;;;;7.23;5.27;;;;;;;;;;5004585;28;20459;-75
2023/09/18 01:26:42;;;;;;;9.63;5.00;;;;;;;;;;5010933;28;20535;-73
2023/09/18 01:29:10;;;;;;;9.20;5.80;;;;;;;;;;5011654;28;20480;-73
2023/09/18 01:31:38;;;;;;;8.40;5.50;;;;;;;;;;5007287;28;20463;-74
2023/09/18 01:34:10;;;;;;;8.23;5.40;;;;;;;;;;5021252;28;20447;-73
2023/09/18 01:36:38;;;;;;;8.37;5.30;;;;;;;;;;5006567;28;20729;-73
2023/09/18 01:39:06;;;;;;;7.53;4.97;;;;;;;;;;5000016;28;20556;-73
2023/09/18 01:41:46;;;;;;;;;;;;;;;;;;;;;
2023/09/18 01:44:14;;;;;;;7.80;5.57;;;;;;;;;;5004770;28;20562;-76
2023/09/18 01:46:43;;;;;;;7.93;5.30;;;;;;;;;;5017023;28;20602;-75
2023/09/18 01:49:18;;;;;;;8.80;5.87;;;;;;;;;;5007515;28;20480;-73
2023/09/18 01:51:47;;;;;;;10.00;6.50;;;;;;;;;;4999552;28;20460;-74
2023/09/18 01:54:20;;;;;;;8.70;5.47;;;;;;;;;;4999480;28;20767;-73
2023/09/18 01:56:55;;;;;;;8.97;6.20;;;;;;;;;;4999753;28;20464;-73
2023/09/18 01:59:26;;;;;;;8.30;5.50;;;;;;;;;;4999432;28;20848;-74
2023/09/18 02:02:08;;;;;;;8.33;5.37;;;;;;;;;;5026125;28;20486;-75
2023/09/18 02:04:48;;;;;;;9.90;5.20;;;;;;;;;;5040560;28;20890;-75
2023/09/18 02:07:16;;;;;;;8.83;5.80;;;;;;;;;;5027939;28;20455;-74
2023/09/18 02:09:48;;;;;;;8.30;5.60;;;;;;;;;;5035204;28;20512;-74
2023/09/18 02:12:18;;;;;;;8.70;6.00;;;;;;;;;;5031439;28;20475;-73
2023/09/18 02:14:47;;;;;;;7.90;5.60;;;;;;;;;;5022686;28;20550;-74
2023/09/18 02:17:16;;;;;;;12.40;6.00;;;;;;;;;;5019077;28;20875;-74
2023/09/18 02:19:46;;;;;;;9.23;6.30;;;;;;;;;;5019137;28;20447;-75
2023/09/18 02:22:18;;;;;;;7.70;5.80;;;;;;;;;;5018639;28;20762;-75
2023/09/18 02:24:47;;;;;;;9.50;5.43;;;;;;;;;;5030538;28;20579;-73
2023/09/18 02:27:18;;;;;;;9.90;5.47;;;;;;;;;;5021440;28;20483;-74
2023/09/18 02:29:46;;;;;;;8.07;5.60;;;;;;;;;;5016411;28;20487;-75
2023/09/18 02:32:14;;;;;;;8.93;5.57;;;;;;;;;;5033582;28;20462;-74
2023/09/18 02:34:57;;;;;;;8.80;5.83;;;;;;;;;;5036073;28;20840;-76
2023/09/18 02:37:28;;;;;;;8.30;6.03;;;;;;;;;;5036476;28;20470;-75
2023/09/18 02:39:57;;;;;;;7.90;5.30;;;;;;;;;;5036839;28;20458;-76
2023/09/18 02:42:31;;;;;;;7.80;5.47;;;;;;;;;;5038580;28;20480;-74
2023/09/18 02:45:05;;;;;;;8.80;5.07;;;;;;;;;;5038422;28;20449;-74
2023/09/18 02:47:37;;;;;;;8.90;6.00;;;;;;;;;;5039185;28;20855;-75
2023/09/18 02:50:14;;;;;;;8.60;5.57;;;;;;;;;;5041015;28;20498;-74
2023/09/18 02:52:46;;;;;;;8.83;5.23;;;;;;;;;;5040279;28;20542;-76
2023/09/18 02:55:14;;;;;;;7.90;5.50;;;;;;;;;;5042027;28;20462;-74
2023/09/18 02:57:49;;;;;;;8.67;5.73;;;;;;;;;;5042574;28;20462;-74
2023/09/18 03:00:28;;;;;;;9.53;5.83;;;;;;;;;;5035030;28;20462;-76
2023/09/18 03:03:05;;;;;;;10.50;5.43;;;;;;;;;;5041201;28;20454;-73
2023/09/18 03:05:46;;;;;;;8.23;5.63;;;;;;;;;;5040775;28;20485;-74
2023/09/18 03:08:21;;;;;;;8.90;5.90;;;;;;;;;;5042089;28;20525;-75
2023/09/18 03:10:52;;;;;;;9.60;5.67;;;;;;;;;;5039790;28;20456;-75
2023/09/18 03:13:22;;;;;;;9.23;5.43;;;;;;;;;;5040898;28;20462;-76
2023/09/18 03:15:50;;;;;;;8.63;5.73;;;;;;;;;;5038535;28;20462;-75
2023/09/18 03:18:25;;;;;;;9.43;5.30;;;;;;;;;;5039725;28;20458;-75
2023/09/18 03:21:01;;;;;;;9.87;5.70;;;;;;;;;;5039218;28;20872;-75
2023/09/18 03:23:46;;;;;;;10.70;6.07;;;;;;;;;;5038309;28;20515;-74
2023/09/18 03:26:15;;;;;;;8.90;6.13;;;;;;;;;;5037388;28;20547;-74
2023/09/18 03:28:48;;;;;;;9.47;5.30;;;;;;;;;;5027574;28;20494;-73
2023/09/18 03:31:22;;;;;;;9.30;6.30;;;;;;;;;;5018989;28;20443;-74
2023/09/18 03:33:52;;;;;;;11.53;6.30;;;;;;;;;;5017620;28;20600;-74
2023/09/18 03:36:32;;;;;;;10.80;6.67;;;;;;;;;;5017854;28;20453;-75
2023/09/18 03:39:02;;;;;;;9.07;5.90;;;;;;;;;;5017289;28;20459;-75
2023/09/18 03:41:33;;;;;;;10.10;5.97;;;;;;;;;;5018225;28;20901;-75
2023/09/18 03:44:13;;;;;;;8.60;5.90;;;;;;;;;;5019220;28;20443;-75
2023/09/18 03:46:42;;;;;;;11.97;6.33;;;;;;;;;;5016087;28;20455;-75
2023/09/18 03:49:13;;;;;;;9.50;6.40;;;;;;;;;;5021896;28;20521;-77
2023/09/18 03:51:44;;;;;;;7.23;5.13;;;;;;;;;;5021852;28;20540;-74
2023/09/18 03:54:12;;;;;;;10.07;6.60;;;;;;;;;;5021756;28;20442;-76
2023/09/18 03:56:42;;;;;;;9.93;6.13;;;;;;;;;;5023212;28;20474;-74
2023/09/18 03:59:11;;;;;;;10.60;5.97;;;;;;;;;;5020390;28;20767;-74
2023/09/18 04:01:39;;;;;;;11.50;7.07;;;;;;;;;;5024275;28;20482;-73
2023/09/18 04:04:08;;;;;;;8.83;6.40;;;;;;;;;;5021240;28;20740;-75
2023/09/18 04:06:39;;;;;;;10.73;6.30;;;;;;;;;;5023910;28;20469;-72
2023/09/18 04:09:09;;;;;;;8.83;5.77;;;;;;;;;;5020764;28;20949;-71
2023/09/18 04:11:40;;;;;;;8.33;5.63;;;;;;;;;;5020951;28;20486;-74
2023/09/18 04:14:09;;;;;;;15.70;6.20;;;;;;;;;;5022062;28;20542;-75
2023/09/18 04:16:41;;;;;;;8.93;6.10;;;;;;;;;;5040177;28;20501;-75
2023/09/18 04:19:09;;;;;;;8.77;6.20;;;;;;;;;;5040748;28;20881;-75
2023/09/18 04:21:40;;;;;;;10.77;6.43;;;;;;;;;;5040407;28;20446;-75
2023/09/18 04:24:13;;;;;;;9.13;6.17;;;;;;;;;;5034054;28;20455;-73
2023/09/18 04:26:41;;;;;;;8.90;6.10;;;;;;;;;;5033201;28;21109;-73
2023/09/18 04:29:09;;;;;;;10.23;6.57;;;;;;;;;;5022953;28;20594;-74
2023/09/18 04:31:38;;;;;;;9.50;6.60;;;;;;;;;;5019976;28;20467;-74
2023/09/18 04:34:06;;;;;;;9.47;6.20;;;;;;;;;;5020181;28;20443;-74
2023/09/18 04:36:36;;;;;;;9.30;6.73;;;;;;;;;;5023664;28;20439;-74
2023/09/18 04:39:09;;;;;;;14.03;7.30;;;;;;;;;;5034470;28;20726;-74
2023/09/18 11:51:17;;;;;;;8.47;3.73;;;;;;;;;;5157860;23;20490;-77
2023/09/18 11:53:53;;;;;;;10.67;3.83;;;;;;;;;;5033043;28;20473;-75
2023/09/18 11:56:25;;;;;;;8.97;3.40;;;;;;;;;;5032897;28;20513;-76
2023/09/18 12:01:50;;;;;;;8.37;3.10;;;;;;;;;;5005482;28;20439;-76
2023/09/18 12:05:05;;;;;;;10.67;3.10;;;;;;;;;;5000952;28;20472;-79
2023/09/18 12:07:47;;;;;;;12.70;3.60;;;;;;;;;;5031954;28;20463;-76
2023/09/18 12:10:34;;;;;;;9.60;3.53;;;;;;;;;;5033637;28;21148;-77
2023/09/18 12:13:08;;;;;;;7.23;3.03;;;;;;;;;;5019456;28;20512;-77
2023/09/18 12:15:39;;;;;;;11.90;3.60;;;;;;;;;;5024734;28;21152;-74
2023/09/18 12:20:56;;;;;;;7.10;2.53;;;;;;;;;;5019784;28;20800;-78
2023/09/18 12:23:53;;;;;;;11.07;3.30;;;;;;;;;;5017579;28;20505;-76
2023/09/18 12:26:34;;;;;;;9.03;3.47;;;;;;;;;;5011253;28;20498;-76
2023/09/18 12:29:19;;;;;;;8.37;2.97;;;;;;;;;;5017715;28;20675;-77
2023/09/18 12:43:50;;;;;;;5.40;1.90;;;;;;;;;;3280118;26;20488;-78
2023/09/18 12:46:21;;;;;;;5.63;2.70;;;;;;;;;;4993278;28;20466;-77
2023/09/18 12:48:55;;;;;;;5.97;2.20;;;;;;;;;;5002497;28;20477;-78
2023/09/18 12:51:35;;;;;;;4.00;1.50;;;;;;;;;;5011300;28;20470;-78
2023/09/18 12:54:06;;;;;;;7.33;2.40;;;;;;;;;;4997831;28;20456;-79
2023/09/18 12:56:36;;;;;;;9.33;2.30;;;;;;;;;;4990951;28;20507;-77
2023/09/18 12:59:12;;;;;;;5.63;2.43;;;;;;;;;;5009619;28;20511;-79
2023/09/18 13:01:43;;;;;;;6.53;2.57;;;;;;;;;;4997696;28;20733;-79
2023/09/18 13:04:18;;;;;;;4.93;1.90;;;;;;;;;;4995733;28;20476;-77
2023/09/18 13:06:47;;;;;;;6.43;2.30;;;;;;;;;;5004499;28;20551;-79
2023/09/18 13:09:17;;;;;;;6.10;2.20;;;;;;;;;;5003838;28;20519;-79
2023/09/18 13:12:04;;;;;;;7.03;3.60;;;;;;;;;;4982169;28;20661;-79
2023/09/18 13:14:52;;;;;;;6.47;2.33;;;;;;;;;;4981339;28;20621;-79
2023/09/18 13:17:23;;;;;;;6.03;2.30;;;;;;;;;;4982026;28;20531;-81
2023/09/18 13:19:57;;;;;;;5.97;2.17;;;;;;;;;;4986259;28;20907;-78
2023/09/18 13:22:30;;;;;;;5.10;2.40;;;;;;;;;;4988272;28;20468;-80
2023/09/18 13:25:04;;;;;;;5.80;1.93;;;;;;;;;;5003378;28;20459;-81
2023/09/18 13:27:39;;;;;;;5.20;2.20;;;;;;;;;;4985665;28;20465;-76
2023/09/18 13:30:10;;;;;;;7.10;2.37;;;;;;;;;;4994548;28;20563;-78
2023/09/18 13:32:48;;;;;;;4.87;1.80;;;;;;;;;;5004324;28;20523;-79
2023/09/18 13:35:27;;;;;;;9.67;2.10;;;;;;;;;;4986439;28;20526;-80
2023/09/18 13:37:56;;;;;;;4.43;1.77;;;;;;;;;;4999854;28;20510;-78
2023/09/18 13:43:55;;;;;;;6.43;2.77;;;;;;;;;;5001070;23;21229;-77
2023/09/18 13:46:35;;;;;;;5.10;1.77;;;;;;;;;;5008861;28;20455;-78
2023/09/18 13:51:57;;;;;;;9.73;2.53;;;;;;;;;;5008907;28;20467;-75
2023/09/18 13:54:27;;;;;;;4.53;1.90;;;;;;;;;;5014613;28;20473;-76
2023/09/18 13:57:29;;;;;;;5.37;1.83;;;;;;;;;;5039868;28;20442;-76
2023/09/18 14:00:15;;;;;;;9.17;2.87;;;;;;;;;;5028820;28;20482;-76
2023/09/18 14:02:45;;;;;;;6.43;2.10;;;;;;;;;;5015501;28;20455;-77
2023/09/18 14:05:37;;;;;;;6.63;2.30;;;;;;;;;;5015093;28;20466;-75
2023/09/18 14:08:12;;;;;;;7.70;2.53;;;;;;;;;;5009646;28;20474;-78
2023/09/18 14:10:50;;;;;;;8.87;1.93;;;;;;;;;;5017805;28;20486;-76
2023/09/18 14:13:21;;;;;;;8.43;2.13;;;;;;;;;;5012780;28;20478;-75
2023/09/18 14:16:05;;;;;;;5.87;1.90;;;;;;;;;;5017741;28;20554;-75
2023/09/18 14:29:48;;;;;;;7.70;2.03;;;;;;;;;;4996101;28;20774;-74
2023/09/18 14:32:45;;;;;;;6.37;2.00;;;;;;;;;;5015688;28;20459;-75
2023/09/18 14:35:39;;;;;;;5.77;2.00;;;;;;;;;;5007959;28;20456;-75
2023/09/18 14:38:26;;;;;;;5.53;2.57;;;;;;;;;;5006435;28;20515;-75
